Terminal Aerodrome Forecast
Issued by NWS

Home | Current Version | Previous Version | Text Only | Print | Product List | Glossary On
Versions: 1 2 3 4 5 6 7 8 9 10 11 12
946
FTUS43 KAPX 200520
TAFMBL
TAF
KMBL 200520Z 2006/2106 11005KT P6SM FEW200
     FM201400 13009KT P6SM SCT250
     FM202000 14013KT P6SM BKN200
     FM210200 15010KT P6SM OVC090 WS020/17045KT
     FM210500 16010KT P6SM VCSH OVC060 WS020/18045KT=

USA.gov is the U.S. government's official web portal to all federal, state and local government web resources and services.